Time;durP1;ratioP1;P1;durP2;ratioP2;P2;SDS_P1;SDS_P2;PMS_P1;PMS_P2;Temp;Humidity;BMP_temperature;BMP_pressure;BME280_temperature;BME280_humidity;BME280_pressure;Samples;Min_cycle;Max_cycle;Signal;HPM_P1;HPM_P2
2023/09/03 00:01:11;;;;;;;11.23;7.50;;;;;;;15.38;100.00;99645.00;5117967;27;20050;-66
2023/09/03 00:03:36;;;;;;;11.43;6.90;;;;;;;15.35;100.00;99646.13;5117646;27;20047;-66
2023/09/03 00:06:01;;;;;;;10.07;7.88;;;;;;;15.30;100.00;99643.03;5117912;27;20353;-66
2023/09/03 00:08:27;;;;;;;10.25;7.43;;;;;;;15.21;100.00;99654.63;5117587;27;20059;-67
2023/09/03 00:10:53;;;;;;;12.52;8.10;;;;;;;15.17;100.00;99643.31;5098881;27;20050;-67
2023/09/03 00:13:19;;;;;;;10.20;7.15;;;;;;;15.11;100.00;99656.44;5117257;27;20046;-67
2023/09/03 00:15:44;;;;;;;12.70;7.93;;;;;;;15.07;100.00;99679.16;5117611;27;20046;-66
2023/09/03 00:18:14;;;;;;;13.45;7.75;;;;;;;15.04;100.00;99674.91;5117793;27;20812;-68
2023/09/03 00:20:41;;;;;;;11.77;8.10;;;;;;;15.02;100.00;99611.59;5117270;27;20046;-71
2023/09/03 00:23:06;;;;;;;10.43;7.78;;;;;;;14.99;100.00;99649.50;5117428;27;20058;-71
2023/09/03 00:25:37;;;;;;;9.23;7.15;;;;;;;14.98;100.00;99674.63;5117424;27;20053;-71
2023/09/03 00:28:04;;;;;;;12.38;7.70;;;;;;;14.88;100.00;99675.44;5116375;27;20405;-71
2023/09/03 00:30:29;;;;;;;10.38;7.80;;;;;;;14.85;100.00;99656.06;5116947;27;20046;-69
2023/09/03 00:32:54;;;;;;;10.85;7.45;;;;;;;14.81;100.00;99655.50;5117038;27;20037;-69
2023/09/03 00:35:21;;;;;;;12.63;8.15;;;;;;;14.76;100.00;99676.53;5099235;27;20515;-70
2023/09/03 00:37:46;;;;;;;15.00;8.27;;;;;;;14.76;100.00;99654.22;5109615;27;20577;-70
2023/09/03 00:40:11;;;;;;;14.18;9.75;;;;;;;14.72;100.00;99648.25;5099210;27;20047;-70
2023/09/03 00:42:36;;;;;;;12.02;8.30;;;;;;;14.69;100.00;99658.41;5117455;27;20043;-75
2023/09/03 00:45:02;;;;;;;14.27;7.70;;;;;;;14.67;100.00;99666.59;5078416;27;20053;-75
2023/09/03 00:47:31;;;;;;;10.27;7.82;;;;;;;14.64;100.00;99666.88;5078980;27;20058;-76
2023/09/03 00:49:58;;;;;;;11.45;8.02;;;;;;;14.61;100.00;99664.47;5111974;27;20065;-73
2023/09/03 00:52:24;;;;;;;11.65;7.93;;;;;;;14.57;100.00;99671.06;5084848;27;20469;-76
2023/09/03 00:54:50;;;;;;;12.90;7.75;;;;;;;14.55;100.00;99669.53;5115923;27;20505;-76
2023/09/03 00:57:15;;;;;;;12.50;8.50;;;;;;;14.53;100.00;99675.88;5064096;27;20042;-73
2023/09/03 00:59:41;;;;;;;9.52;7.40;;;;;;;14.46;100.00;99680.06;5097407;27;20038;-72
2023/09/03 01:02:08;;;;;;;13.10;8.10;;;;;;;14.45;100.00;99674.81;5097834;27;20404;-72
2023/09/03 01:04:33;;;;;;;8.65;7.35;;;;;;;14.42;100.00;99667.06;5077851;27;20093;-71
2023/09/03 01:06:59;;;;;;;13.48;8.25;;;;;;;14.40;100.00;99664.50;5094698;27;20051;-72
2023/09/03 01:09:24;;;;;;;16.52;8.75;;;;;;;14.37;100.00;99691.56;5097419;27;20412;-73
2023/09/03 01:11:57;;;;;;;11.95;7.13;;;;;;;14.38;100.00;99671.78;5098168;27;20038;-75
2023/09/03 01:14:51;;;;;;;10.17;7.80;;;;;;;14.45;100.00;99677.50;5096051;27;20038;-72
2023/09/03 01:17:20;;;;;;;11.65;7.85;;;;;;;14.34;100.00;99674.88;5094833;27;20128;-72
2023/09/03 01:20:13;;;;;;;9.98;7.70;;;;;;;14.38;100.00;99670.94;5103675;27;20065;-71
2023/09/03 01:23:16;;;;;;;10.95;6.95;;;;;;;14.37;100.00;99675.47;5115837;27;20039;-71
2023/09/03 01:26:08;;;;;;;9.95;7.75;;;;;;;14.33;100.00;99668.69;5097225;27;20046;-70
2023/09/03 01:28:40;;;;;;;10.80;7.47;;;;;;;14.23;100.00;99674.94;5116158;27;20046;-70
2023/09/03 01:31:11;;;;;;;13.23;7.90;;;;;;;14.20;100.00;99673.41;5116153;27;20049;-70
2023/09/03 01:33:40;;;;;;;10.50;8.02;;;;;;;14.16;100.00;99672.81;5096104;27;20053;-71
2023/09/03 01:36:09;;;;;;;9.10;7.32;;;;;;;14.12;100.00;99681.22;5098114;27;20042;-72
2023/09/03 01:38:39;;;;;;;9.85;7.00;;;;;;;14.10;100.00;99678.69;5116081;27;20042;-73
2023/09/03 01:41:05;;;;;;;10.65;7.95;;;;;;;14.05;100.00;99686.28;5097302;27;20049;-71
2023/09/03 01:43:30;;;;;;;9.23;6.90;;;;;;;14.03;100.00;99672.16;5077580;27;20039;-75
2023/09/03 01:45:56;;;;;;;11.23;7.70;;;;;;;13.99;100.00;99675.25;5115208;27;20046;-75
2023/09/03 01:48:51;;;;;;;11.02;6.90;;;;;;;14.03;100.00;99682.88;5080253;27;20412;-73
2023/09/03 01:51:36;;;;;;;10.40;7.65;;;;;;;13.96;100.00;99686.22;5114008;27;20042;-75
2023/09/03 01:54:24;;;;;;;12.18;7.50;;;;;;;13.98;100.00;99684.25;5087119;27;20039;-74
2023/09/03 01:57:07;;;;;;;11.63;7.95;;;;;;;13.91;100.00;99683.91;5115300;27;20057;-71
2023/09/03 01:59:58;;;;;;;8.38;6.55;;;;;;;13.91;100.00;99694.63;5090339;27;20405;-71
2023/09/03 02:02:25;;;;;;;13.80;7.50;;;;;;;13.83;100.00;99681.03;5083403;27;20054;-71
2023/09/03 02:04:51;;;;;;;15.20;7.43;;;;;;;13.80;100.00;99681.28;5096899;27;20035;-70
2023/09/03 02:07:16;;;;;;;9.75;7.50;;;;;;;13.78;100.00;99677.88;5079335;27;20061;-72
2023/09/03 02:09:41;;;;;;;9.85;7.60;;;;;;;13.76;100.00;99680.72;5096980;27;20045;-69
2023/09/03 02:12:07;;;;;;;11.25;7.80;;;;;;;13.76;100.00;99679.84;5097036;27;20046;-71
2023/09/03 02:14:32;;;;;;;9.10;6.95;;;;;;;13.73;100.00;99680.97;5096933;27;20046;-69
2023/09/03 02:16:58;;;;;;;8.98;6.90;;;;;;;13.74;100.00;99687.16;5093937;27;20057;-71
2023/09/03 02:19:23;;;;;;;13.13;7.32;;;;;;;13.73;100.00;99686.31;5079538;27;20416;-69
2023/09/03 02:21:50;;;;;;;11.18;7.93;;;;;;;13.70;100.00;99686.56;5113255;27;20504;-69
2023/09/03 02:24:15;;;;;;;11.00;7.40;;;;;;;13.69;100.00;99674.16;5097492;27;20065;-68
2023/09/03 02:26:42;;;;;;;11.15;7.60;;;;;;;13.67;100.00;99692.16;5097147;27;20405;-68
2023/09/03 02:29:07;;;;;;;10.38;7.10;;;;;;;13.64;100.00;99687.09;5115903;27;20521;-70
2023/09/03 02:31:32;;;;;;;12.20;8.43;;;;;;;13.62;100.00;99678.31;5097361;27;20035;-70
2023/09/03 02:33:58;;;;;;;9.38;7.30;;;;;;;13.61;100.00;99687.34;5097625;27;20878;-70
2023/09/03 02:36:23;;;;;;;10.25;7.72;;;;;;;13.59;100.00;99688.44;5099952;27;20034;-71
2023/09/03 02:39:00;;;;;;;15.82;8.63;;;;;;;13.60;100.00;99706.22;5116459;27;20108;-73
2023/09/03 02:41:25;;;;;;;12.38;8.10;;;;;;;13.56;100.00;99694.91;5117744;27;20035;-71
2023/09/03 02:43:50;;;;;;;9.93;7.10;;;;;;;13.55;100.00;99692.34;5119831;27;20051;-68
2023/09/03 02:46:15;;;;;;;10.02;7.13;;;;;;;13.54;100.00;99691.53;5101182;27;20059;-69
2023/09/03 02:48:41;;;;;;;10.65;7.53;;;;;;;13.54;100.00;99696.03;5100646;27;20515;-70
2023/09/03 02:51:06;;;;;;;14.25;8.48;;;;;;;13.53;100.00;99713.06;5101361;27;20046;-70
2023/09/03 02:53:31;;;;;;;12.68;8.07;;;;;;;13.51;100.00;99689.09;5119240;27;20503;-69
2023/09/03 02:55:58;;;;;;;11.40;7.50;;;;;;;13.53;100.00;99705.03;5101028;27;20377;-70
2023/09/03 02:58:23;;;;;;;11.30;7.82;;;;;;;13.51;100.00;99712.34;5073204;27;20051;-70
2023/09/03 03:00:48;;;;;;;11.27;7.85;;;;;;;13.52;100.00;99698.81;5082665;27;20350;-70
2023/09/03 03:03:14;;;;;;;10.07;8.05;;;;;;;13.53;100.00;99726.47;5119294;27;20053;-71
2023/09/03 03:05:39;;;;;;;9.45;7.15;;;;;;;13.52;100.00;99706.84;5118840;27;20031;-69
2023/09/03 03:08:05;;;;;;;9.23;7.50;;;;;;;13.54;100.00;99702.22;5098457;27;20079;-70
2023/09/03 03:10:30;;;;;;;13.55;8.13;;;;;;;13.54;100.00;99704.91;5100576;27;20528;-70
2023/09/03 03:12:55;;;;;;;11.75;7.50;;;;;;;13.54;100.00;99696.88;5100610;27;20046;-70
2023/09/03 03:15:20;;;;;;;10.25;8.13;;;;;;;13.56;100.00;99702.94;5117303;27;20034;-70
2023/09/03 03:17:46;;;;;;;10.20;7.40;;;;;;;13.56;100.00;99710.97;5115986;27;20039;-70
2023/09/03 03:20:12;;;;;;;10.65;7.40;;;;;;;13.58;100.00;99705.47;5100551;27;20039;-70
2023/09/03 03:22:37;;;;;;;15.45;8.25;;;;;;;13.60;100.00;99663.34;5099006;27;20046;-71
2023/09/03 03:25:03;;;;;;;11.23;7.30;;;;;;;13.60;100.00;99701.72;5080351;27;20047;-71
2023/09/03 03:27:30;;;;;;;11.15;7.82;;;;;;;13.64;100.00;99739.81;5099065;27;20694;-71
2023/09/03 03:29:56;;;;;;;12.23;7.90;;;;;;;13.66;100.00;99701.19;5082532;27;20046;-70
2023/09/03 03:32:21;;;;;;;11.35;8.00;;;;;;;13.69;100.00;99700.09;5100224;27;20047;-71
2023/09/03 03:34:51;;;;;;;10.23;7.18;;;;;;;13.72;100.00;99705.19;5079456;27;20058;-70
2023/09/03 03:37:16;;;;;;;9.70;7.00;;;;;;;13.72;100.00;99699.84;5097932;27;20520;-70
2023/09/03 03:39:41;;;;;;;9.50;7.50;;;;;;;13.72;100.00;99694.47;5098003;27;20043;-69
2023/09/03 03:42:06;;;;;;;11.10;8.07;;;;;;;13.73;100.00;99696.19;5088823;27;20046;-69
2023/09/03 03:44:32;;;;;;;9.48;7.53;;;;;;;13.74;100.00;99725.53;5082352;27;20054;-69
2023/09/03 03:46:57;;;;;;;9.88;7.40;;;;;;;13.76;100.00;99695.94;5117864;27;20038;-69
2023/09/03 03:49:22;;;;;;;10.27;7.45;;;;;;;13.77;100.00;99702.97;5099940;27;20043;-69
2023/09/03 03:51:47;;;;;;;10.75;8.02;;;;;;;13.79;100.00;99701.00;5118548;27;20049;-69
2023/09/03 03:54:13;;;;;;;9.77;7.10;;;;;;;13.79;100.00;99723.31;5100042;27;20034;-70
2023/09/03 03:56:39;;;;;;;10.95;8.00;;;;;;;13.82;100.00;99708.81;5082422;27;20047;-70
2023/09/03 03:59:04;;;;;;;11.73;8.18;;;;;;;13.85;100.00;99721.97;5099688;27;20496;-70
2023/09/03 04:01:29;;;;;;;10.20;8.00;;;;;;;13.89;100.00;99709.97;5118119;27;20069;-70
2023/09/03 04:03:55;;;;;;;11.20;8.15;;;;;;;13.94;100.00;99710.47;5082810;27;20107;-69
2023/09/03 04:06:20;;;;;;;13.82;8.75;;;;;;;14.04;100.00;99722.09;5117864;27;20468;-69
2023/09/03 04:08:46;;;;;;;11.52;8.40;;;;;;;14.17;100.00;99728.13;5099474;27;20047;-69
2023/09/03 04:11:14;;;;;;;10.93;8.18;;;;;;;14.38;100.00;99736.16;5099441;27;20042;-69
2023/09/03 04:13:40;;;;;;;8.90;7.95;;;;;;;14.60;100.00;99716.41;5099154;27;20042;-70
2023/09/03 04:16:10;;;;;;;9.05;7.65;;;;;;;14.88;100.00;99723.78;5064957;27;20042;-70
2023/09/03 04:18:36;;;;;;;8.27;7.10;;;;;;;15.10;100.00;99711.97;5082622;27;20069;-69
2023/09/03 04:21:02;;;;;;;14.07;6.93;;;;;;;15.27;100.00;99708.63;5099514;27;20043;-70
2023/09/03 04:23:28;;;;;;;8.88;6.63;;;;;;;15.42;100.00;99716.28;5099373;27;20043;-70
2023/09/03 04:25:58;;;;;;;10.40;7.55;;;;;;;15.53;100.00;99708.09;5099430;27;20045;-70
2023/09/03 04:28:25;;;;;;;10.38;6.97;;;;;;;15.63;100.00;99730.50;5099454;27;20058;-70
2023/09/03 04:30:56;;;;;;;8.95;6.97;;;;;;;15.73;100.00;99725.97;5099434;27;20059;-70
2023/09/03 04:33:23;;;;;;;9.95;7.68;;;;;;;15.78;99.40;99702.22;5078500;27;20050;-70
2023/09/03 04:35:57;;;;;;;8.77;6.93;;;;;;;15.86;98.86;99710.44;5079052;27;20039;-70
2023/09/03 04:38:23;;;;;;;11.05;7.53;;;;;;;15.87;97.74;99711.28;5078631;27;20047;-70
2023/09/03 04:40:49;;;;;;;8.75;6.90;;;;;;;15.89;97.60;99725.44;5078672;27;20042;-70
2023/09/03 04:43:15;;;;;;;8.80;7.45;;;;;;;15.93;96.67;99716.91;5078765;27;20505;-70
2023/09/03 04:45:46;;;;;;;9.93;7.55;;;;;;;15.94;96.28;99710.56;5078314;27;20039;-70
2023/09/03 04:48:12;;;;;;;9.95;7.63;;;;;;;15.90;95.91;99708.31;5078375;27;20101;-70
2023/09/03 04:50:37;;;;;;;11.88;8.35;;;;;;;15.91;95.65;99707.31;5078531;27;20433;-69
2023/09/03 04:53:02;;;;;;;8.35;7.07;;;;;;;15.93;95.88;99699.94;5078189;27;20421;-70
2023/09/03 04:55:31;;;;;;;10.10;8.18;;;;;;;16.03;96.05;99702.66;5096608;27;20710;-68
2023/09/03 04:57:57;;;;;;;11.68;7.78;;;;;;;16.14;95.84;99703.31;5096610;27;20043;-68
2023/09/03 05:00:22;;;;;;;13.35;8.40;;;;;;;16.30;95.67;99698.22;5077834;27;20046;-69
2023/09/03 05:02:47;;;;;;;11.88;7.30;;;;;;;16.48;95.07;99705.56;5098544;27;20042;-71
2023/09/03 05:05:14;;;;;;;9.88;7.18;;;;;;;16.65;94.21;99704.81;5098587;27;20043;-70
2023/09/03 05:07:39;;;;;;;8.68;7.63;;;;;;;16.79;93.09;99725.03;5098534;27;20070;-70
2023/09/03 05:10:07;;;;;;;10.45;7.72;;;;;;;16.93;91.20;99697.63;5098731;27;20489;-70
2023/09/03 05:12:33;;;;;;;9.60;7.05;;;;;;;17.08;90.46;99698.81;5117132;27;20476;-71
2023/09/03 05:14:59;;;;;;;10.93;7.45;;;;;;;17.20;89.54;99703.00;5098741;27;20050;-71
2023/09/03 05:17:24;;;;;;;11.15;7.68;;;;;;;17.35;88.15;99690.72;5098511;27;20046;-71
2023/09/03 05:19:49;;;;;;;9.40;6.95;;;;;;;17.47;85.82;99688.66;5098495;27;20046;-71
2023/09/03 05:22:15;;;;;;;10.00;7.47;;;;;;;17.67;85.18;99689.41;5081278;27;20054;-71
2023/09/03 05:24:40;;;;;;;11.40;7.43;;;;;;;17.92;84.08;99693.16;5116699;27;20038;-71
2023/09/03 05:27:05;;;;;;;10.13;7.63;;;;;;;18.14;82.12;99693.53;5080959;27;20042;-71
2023/09/03 05:29:31;;;;;;;12.00;7.53;;;;;;;18.33;80.89;99676.28;5097728;27;20046;-71
2023/09/03 05:31:56;;;;;;;9.32;6.85;;;;;;;18.39;79.82;99677.53;5098118;27;20042;-70
2023/09/03 05:34:23;;;;;;;9.52;7.10;;;;;;;18.41;79.31;99687.13;5080729;27;20054;-70
2023/09/03 05:36:49;;;;;;;10.32;6.85;;;;;;;18.42;78.56;99691.53;5098283;27;20047;-71
2023/09/03 05:39:15;;;;;;;9.73;6.78;;;;;;;18.57;79.00;99694.50;5098136;27;20043;-69
2023/09/03 05:41:40;;;;;;;15.95;7.28;;;;;;;18.78;78.63;99696.84;5116619;27;20400;-71
2023/09/03 05:44:09;;;;;;;8.90;6.60;;;;;;;19.03;77.50;99695.97;5116636;27;20042;-71
2023/09/03 05:46:37;;;;;;;9.00;6.95;;;;;;;19.25;76.44;99716.16;5097906;27;20034;-71
2023/09/03 05:49:03;;;;;;;12.38;6.80;;;;;;;19.59;75.27;99689.06;5116402;27;20500;-69
2023/09/03 05:51:28;;;;;;;9.50;6.28;;;;;;;20.27;73.50;99697.75;5097949;27;20042;-71
2023/09/03 05:53:53;;;;;;;9.52;6.43;;;;;;;20.80;70.81;99687.34;5097774;27;20042;-70
2023/09/03 05:56:21;;;;;;;7.28;5.97;;;;;;;21.06;67.92;99701.50;5097723;27;20523;-71
2023/09/03 05:58:47;;;;;;;7.40;6.05;;;;;;;21.19;67.00;99698.25;5080701;27;20551;-71
2023/09/03 06:01:13;;;;;;;9.43;6.47;;;;;;;21.23;66.13;99662.47;5107492;27;20046;-70
2023/09/03 06:03:40;;;;;;;6.25;5.13;;;;;;;21.32;65.73;99693.97;5097763;27;20049;-70
2023/09/03 06:06:11;;;;;;;7.82;5.90;;;;;;;21.52;65.33;99688.09;5097690;27;20069;-70
2023/09/03 06:08:38;;;;;;;10.30;6.20;;;;;;;21.66;63.75;99684.63;5097390;27;20436;-70
2023/09/03 06:11:05;;;;;;;7.45;5.97;;;;;;;21.82;63.41;99681.78;5115395;27;20046;-70
2023/09/03 06:13:32;;;;;;;9.00;6.93;;;;;;;21.89;62.37;99680.03;5116146;27;20038;-71
2023/09/03 06:15:57;;;;;;;7.45;6.40;;;;;;;22.09;61.86;99683.97;5115695;27;20042;-70
2023/09/03 06:18:24;;;;;;;11.40;6.07;;;;;;;22.60;61.21;99684.16;5116005;27;20073;-70
2023/09/03 06:20:50;;;;;;;13.85;6.20;;;;;;;23.92;59.32;99668.75;5097476;27;20042;-71
2023/09/03 06:23:18;;;;;;;7.65;5.70;;;;;;;25.44;54.95;99655.09;5093346;27;20043;-72
2023/09/03 06:25:43;;;;;;;8.30;5.95;;;;;;;26.41;52.07;99670.22;5095305;27;20493;-71
2023/09/03 06:28:09;;;;;;;8.65;5.03;;;;;;;26.82;49.28;99664.47;5115834;27;20042;-71
2023/09/03 06:30:35;;;;;;;9.18;5.63;;;;;;;27.02;48.25;99657.06;5096251;27;20043;-71
2023/09/03 06:33:00;;;;;;;7.82;5.80;;;;;;;27.77;47.25;99652.72;5116012;27;20049;-71
2023/09/03 06:35:25;;;;;;;9.02;5.53;;;;;;;29.15;43.41;99650.66;5115886;27;20045;-71
2023/09/03 06:37:50;;;;;;;7.10;5.00;;;;;;;30.25;41.45;99618.25;5115156;27;20043;-71
2023/09/03 06:40:16;;;;;;;6.72;4.72;;;;;;;31.30;39.12;99654.81;5115255;27;20046;-72
2023/09/03 06:42:41;;;;;;;6.90;5.00;;;;;;;31.82;36.78;99652.03;5097065;27;20416;-71
2023/09/03 06:45:07;;;;;;;12.10;5.97;;;;;;;31.81;35.99;99661.38;5115780;27;20042;-72
2023/09/03 06:47:32;;;;;;;6.43;5.55;;;;;;;32.70;35.27;99654.06;5115637;27;20062;-70
2023/09/03 06:49:57;;;;;;;7.35;5.35;;;;;;;33.44;33.68;99654.56;5115703;27;20039;-70
2023/09/03 06:52:23;;;;;;;9.77;5.60;;;;;;;33.70;32.49;99652.09;5115686;27;20053;-70
2023/09/03 06:54:49;;;;;;;8.40;5.13;;;;;;;34.22;32.03;99653.16;5115453;27;20039;-70
2023/09/03 06:57:14;;;;;;;9.95;5.68;;;;;;;34.59;30.88;99656.00;5115657;27;20536;-71
2023/09/03 06:59:40;;;;;;;6.57;5.63;;;;;;;34.92;30.81;99654.84;5079855;27;20042;-70
2023/09/03 07:02:06;;;;;;;7.05;5.97;;;;;;;35.10;30.35;99655.50;5115501;27;20043;-70
2023/09/03 07:04:31;;;;;;;8.38;5.13;;;;;;;34.68;30.13;99648.00;5115628;27;20064;-70
2023/09/03 07:06:56;;;;;;;7.45;5.75;;;;;;;34.15;30.67;99644.25;5115454;27;20536;-70
2023/09/03 07:09:21;;;;;;;8.32;5.53;;;;;;;33.81;30.95;99648.38;5115411;27;20038;-72
2023/09/03 07:11:46;;;;;;;8.10;5.25;;;;;;;33.56;30.76;99646.13;5115232;27;20050;-71
2023/09/03 07:14:11;;;;;;;6.45;5.03;;;;;;;33.61;30.80;99637.06;5096338;27;20050;-71
2023/09/03 07:16:37;;;;;;;7.78;5.80;;;;;;;33.35;31.60;99638.69;5115281;27;20042;-72
2023/09/03 07:19:02;;;;;;;6.55;5.43;;;;;;;34.27;31.17;99629.44;5114948;27;20042;-71
2023/09/03 07:21:27;;;;;;;10.77;5.55;;;;;;;35.68;29.12;99637.69;5079785;27;20037;-70
2023/09/03 07:23:53;;;;;;;6.78;5.80;;;;;;;37.14;27.62;99622.09;5096659;27;20497;-72
2023/09/03 07:26:18;;;;;;;7.88;5.82;;;;;;;38.39;26.50;99635.53;5098182;27;20536;-70
2023/09/03 07:28:44;;;;;;;8.50;6.57;;;;;;;39.30;25.05;99630.13;5100475;27;20047;-72
2023/09/03 07:31:09;;;;;;;8.98;5.95;;;;;;;39.96;23.85;99635.66;5118789;27;20042;-72
2023/09/03 07:33:34;;;;;;;15.80;9.43;;;;;;;40.56;23.64;99622.63;5118876;27;20047;-71
2023/09/03 07:35:59;;;;;;;11.80;6.63;;;;;;;41.26;23.08;99643.97;5118288;27;20034;-71
2023/09/03 07:38:27;;;;;;;13.68;8.80;;;;;;;41.91;22.36;99627.66;5099782;27;20054;-70
2023/09/03 07:40:52;;;;;;;9.07;7.07;;;;;;;42.44;21.79;99649.38;5118784;27;20031;-73
2023/09/03 07:43:17;;;;;;;6.20;5.65;;;;;;;42.96;20.81;99624.44;5118865;27;20051;-71
2023/09/03 07:45:42;;;;;;;7.95;5.95;;;;;;;43.24;20.19;99623.03;5118419;27;20038;-70
2023/09/03 07:48:07;;;;;;;6.65;5.93;;;;;;;43.57;19.40;99625.47;5118226;27;20053;-71
2023/09/03 07:50:33;;;;;;;10.10;5.80;;;;;;;43.93;19.46;99633.56;5098949;27;20412;-72
2023/09/03 07:52:58;;;;;;;7.85;6.95;;;;;;;44.25;19.10;99646.31;5118074;27;20071;-70
2023/09/03 07:55:24;;;;;;;9.80;7.55;;;;;;;44.53;18.55;99622.28;5118088;27;20145;-69
2023/09/03 07:57:49;;;;;;;21.52;10.38;;;;;;;44.87;18.34;99632.63;5118074;27;20484;-71
2023/09/03 08:00:14;;;;;;;13.52;9.45;;;;;;;45.26;18.10;99619.41;5098904;27;20053;-72
2023/09/03 08:02:42;;;;;;;11.82;9.68;;;;;;;45.55;17.78;99616.56;5099357;27;20051;-72
2023/09/03 08:05:11;;;;;;;7.88;7.28;;;;;;;45.56;17.37;99624.69;5099521;27;20042;-71
2023/09/03 08:07:36;;;;;;;12.63;7.93;;;;;;;44.79;17.27;99637.13;5098643;27;20515;-70
2023/09/03 08:10:02;;;;;;;10.85;7.43;;;;;;;44.97;17.20;99642.69;5118023;27;20043;-71
2023/09/03 08:12:29;;;;;;;7.15;6.63;;;;;;;45.49;17.21;99629.97;5098965;27;20061;-71
2023/09/03 08:14:54;;;;;;;9.70;6.82;;;;;;;46.17;16.71;99626.97;5118153;27;20519;-71
2023/09/03 08:17:20;;;;;;;9.25;8.40;;;;;;;46.60;16.15;99615.28;5098993;27;20755;-71
2023/09/03 08:19:47;;;;;;;8.48;7.75;;;;;;;46.94;15.85;99617.72;5118152;27;20103;-73
2023/09/03 08:22:12;;;;;;;11.88;9.00;;;;;;;47.21;15.19;99621.00;5118194;27;20042;-71
2023/09/03 08:24:37;;;;;;;8.02;7.32;;;;;;;47.44;15.26;99630.66;5117983;27;20051;-72
2023/09/03 08:27:02;;;;;;;8.02;7.50;;;;;;;47.71;14.94;99620.59;5117632;27;20038;-73
2023/09/03 08:29:27;;;;;;;8.98;8.18;;;;;;;47.88;14.85;99628.81;5117779;27;20042;-72
2023/09/03 08:31:53;;;;;;;9.52;8.73;;;;;;;48.19;14.71;99633.81;5117850;27;20046;-72
2023/09/03 08:34:18;;;;;;;10.13;9.32;;;;;;;48.68;14.38;99613.72;5098247;27;20053;-72
2023/09/03 08:36:43;;;;;;;9.40;8.80;;;;;;;47.93;14.45;99614.44;5099150;27;20026;-72
2023/09/03 08:39:09;;;;;;;8.90;8.20;;;;;;;46.39;15.40;99628.66;5081651;27;20531;-71
2023/09/03 08:41:38;;;;;;;8.70;8.07;;;;;;;45.61;15.55;99612.34;5117542;27;20519;-72
2023/09/03 08:44:06;;;;;;;9.98;8.80;;;;;;;45.99;15.36;99617.06;5117421;27;20039;-72
2023/09/03 08:46:34;;;;;;;8.20;7.60;;;;;;;46.93;14.83;99610.41;5117239;27;20515;-71
2023/09/03 08:48:59;;;;;;;8.07;7.57;;;;;;;47.77;14.18;99621.19;5117246;27;20038;-72
2023/09/03 08:51:26;;;;;;;9.05;8.45;;;;;;;48.33;13.90;99622.88;5117113;27;20508;-72
2023/09/03 08:53:54;;;;;;;10.82;9.93;;;;;;;48.89;13.46;99611.47;5117114;27;20058;-72
2023/09/03 08:56:20;;;;;;;9.88;9.18;;;;;;;49.19;13.44;99617.50;5116953;27;20066;-72
2023/09/03 08:58:45;;;;;;;11.52;10.82;;;;;;;49.34;13.61;99604.47;5116944;27;20047;-72
2023/09/03 09:01:13;;;;;;;10.52;9.50;;;;;;;48.34;13.59;99618.84;5116156;27;20061;-71
2023/09/03 09:03:39;;;;;;;9.25;8.52;;;;;;;45.73;15.23;99617.25;5080518;27;20058;-71
2023/09/03 09:06:07;;;;;;;7.10;6.60;;;;;;;43.13;16.87;99607.63;5116421;27;20035;-73
2023/09/03 09:08:33;;;;;;;6.82;6.30;;;;;;;42.76;17.54;99594.97;5116726;27;20059;-73
2023/09/03 09:11:04;;;;;;;6.85;6.25;;;;;;;42.32;18.12;99604.28;5116713;27;20042;-73
2023/09/03 09:13:34;;;;;;;6.63;5.97;;;;;;;41.18;18.64;99605.53;5097587;27;20053;-73
2023/09/03 09:16:00;;;;;;;5.93;5.40;;;;;;;40.20;19.44;99602.00;5116046;27;20058;-73
2023/09/03 09:18:25;;;;;;;6.93;5.63;;;;;;;38.91;20.37;99606.06;5116462;27;20044;-73
2023/09/03 09:20:53;;;;;;;5.63;5.13;;;;;;;37.87;21.10;99605.59;5116625;27;20061;-73
2023/09/03 09:23:22;;;;;;;4.82;4.32;;;;;;;38.29;21.15;99606.94;5116782;27;20041;-72
2023/09/03 09:25:47;;;;;;;4.82;4.30;;;;;;;39.04;20.98;99607.34;5097315;27;20057;-72
2023/09/03 09:28:13;;;;;;;5.25;4.75;;;;;;;38.99;20.78;99601.81;5116360;27;20034;-72
2023/09/03 09:31:01;;;;;;;5.00;4.60;;;;;;;39.41;20.58;99614.94;5116438;27;20054;-72
2023/09/03 09:33:27;;;;;;;5.97;4.88;;;;;;;39.41;20.31;99603.78;5116553;27;20030;-72
2023/09/03 09:35:53;;;;;;;5.32;4.82;;;;;;;39.70;19.95;99620.41;5116746;27;20489;-72
2023/09/03 09:38:18;;;;;;;5.20;4.80;;;;;;;38.79;20.60;99605.63;5097620;27;20046;-72
2023/09/03 09:40:44;;;;;;;5.55;4.88;;;;;;;37.26;21.73;99594.81;5116342;27;20053;-72
2023/09/03 09:43:10;;;;;;;4.82;4.43;;;;;;;35.61;23.48;99599.13;5116245;27;20039;-72
2023/09/03 09:45:46;;;;;;;5.97;4.60;;;;;;;34.46;25.32;99616.84;5115561;27;20042;-72
2023/09/03 09:48:12;;;;;;;5.60;4.18;;;;;;;32.97;26.81;99609.16;5116228;27;20047;-72
2023/09/03 09:50:46;;;;;;;5.22;4.45;;;;;;;32.03;27.42;99609.09;5097292;27;20057;-72
2023/09/03 09:53:23;;;;;;;3.92;3.60;;;;;;;32.56;28.21;99607.75;5116638;27;20035;-72
2023/09/03 09:55:58;;;;;;;4.05;3.75;;;;;;;32.81;27.00;99614.50;5116268;27;20084;-71
2023/09/03 09:58:33;;;;;;;4.35;3.95;;;;;;;32.43;27.19;99608.94;5115982;27;20038;-72
2023/09/03 10:00:58;;;;;;;4.85;4.18;;;;;;;32.57;28.46;99604.75;5115976;27;20405;-72
2023/09/03 10:03:23;;;;;;;5.63;4.72;;;;;;;32.68;28.52;99594.69;5112568;27;20035;-71
2023/09/03 10:05:49;;;;;;;5.50;3.97;;;;;;;32.79;27.73;99602.88;5116018;27;20755;-72
2023/09/03 10:08:16;;;;;;;4.25;3.80;;;;;;;33.05;27.70;99590.25;5116024;27;20519;-73
2023/09/03 10:10:43;;;;;;;5.80;4.55;;;;;;;33.28;27.67;99600.22;5116118;27;20393;-71
2023/09/03 10:13:09;;;;;;;5.05;4.13;;;;;;;33.21;27.77;99598.69;5097434;27;20369;-73
2023/09/03 10:15:35;;;;;;;6.68;4.45;;;;;;;32.74;27.98;99602.78;5115617;27;20057;-72
2023/09/03 10:18:02;;;;;;;5.75;3.95;;;;;;;32.28;28.80;99606.75;5115668;27;20039;-72
2023/09/03 10:20:28;;;;;;;4.82;3.70;;;;;;;31.69;28.96;99598.03;5097457;27;20050;-72
2023/09/03 10:22:56;;;;;;;4.00;3.17;;;;;;;31.02;29.91;99613.47;5097215;27;20031;-71
2023/09/03 10:25:25;;;;;;;8.32;4.30;;;;;;;30.47;29.67;99556.09;5096903;27;21026;-72
2023/09/03 10:27:58;;;;;;;3.88;3.42;;;;;;;29.70;31.12;99548.94;5115857;27;20350;-71
2023/09/03 10:30:30;;;;;;;4.72;3.65;;;;;;;29.11;31.42;99556.97;5115361;27;20053;-71
2023/09/03 10:32:57;;;;;;;4.90;4.00;;;;;;;28.32;33.17;99589.94;5115717;27;20058;-72
2023/09/03 10:35:23;;;;;;;9.68;4.00;;;;;;;27.72;33.70;99592.31;5115768;27;20496;-74
2023/09/03 10:37:50;;;;;;;4.38;3.97;;;;;;;27.17;34.19;99615.78;5093963;28;20034;-72
2023/09/03 10:40:22;;;;;;;7.18;3.53;;;;;;;26.75;35.17;99628.91;5095060;27;20054;-72
2023/09/03 10:42:49;;;;;;;3.60;3.25;;;;;;;26.36;36.42;99610.72;5095130;28;20047;-70
2023/09/03 10:45:15;;;;;;;6.70;4.00;;;;;;;26.14;36.64;99623.72;5093840;28;20043;-71
2023/09/03 10:48:00;;;;;;;4.63;3.33;;;;;;;26.16;36.65;99583.38;5094902;27;20043;-71
2023/09/03 10:50:46;;;;;;;6.03;3.80;;;;;;;26.02;36.55;99625.41;5093700;28;20055;-71
2023/09/03 10:53:37;;;;;;;4.13;3.63;;;;;;;25.80;36.68;99627.50;5094845;28;20043;-69
2023/09/03 10:56:20;;;;;;;6.63;3.60;;;;;;;25.67;37.10;99627.47;5095018;27;20047;-69
2023/09/03 10:58:56;;;;;;;6.85;3.63;;;;;;;25.38;37.69;99620.44;5110712;27;20489;-70
2023/09/03 11:01:26;;;;;;;5.70;4.00;;;;;;;25.10;38.12;99647.81;5100324;27;20042;-68
2023/09/03 11:03:53;;;;;;;4.47;3.58;;;;;;;25.02;38.88;99628.06;5110156;27;20374;-68
2023/09/03 11:06:26;;;;;;;5.45;4.35;;;;;;;24.88;38.92;99624.41;5101774;27;20055;-69
2023/09/03 11:09:01;;;;;;;5.32;3.97;;;;;;;24.65;39.61;99621.13;5103247;27;20501;-69
2023/09/03 11:11:30;;;;;;;4.30;3.28;;;;;;;24.51;40.14;99622.91;5098732;27;20051;-68
2023/09/03 11:13:56;;;;;;;5.55;4.10;;;;;;;24.48;40.49;99615.16;5098766;27;20497;-70
2023/09/03 11:16:28;;;;;;;5.03;4.10;;;;;;;24.51;40.58;99622.91;5116129;27;20049;-75
2023/09/03 11:18:54;;;;;;;5.35;4.05;;;;;;;24.42;40.75;99637.75;5115355;27;20045;-71
2023/09/03 11:21:23;;;;;;;5.80;4.18;;;;;;;24.41;40.52;99620.56;5119308;27;20046;-70
2023/09/03 11:23:59;;;;;;;6.78;4.45;;;;;;;24.44;40.16;99622.03;5097916;27;20051;-71
2023/09/03 11:26:24;;;;;;;5.35;3.80;;;;;;;24.22;40.36;99618.53;5096980;27;20042;-70
2023/09/03 11:28:50;;;;;;;4.53;3.67;;;;;;;24.06;41.28;99611.44;5118975;27;20049;-70